KFST

Fort Stockton-Pecos County Airport

Fort Stockton, Texas, USA
KFST 190059Z 1901/1924 34021G29KT P6SM SKC FM191000 31010KT P6SM SKC
Issued Valid From Valid To
Jan-19 @ 00:59 UTC
(an hour ago)
Jan-19 @ 01:00 UTC
(an hour ago)
Jan-20 @ 00:00 UTC
(in 22 hours)
Jan-19 @ 01:00 to Jan-19 @ 10:00
KFST 190059Z 1901/1924 34021G29KT P6SM SKC
Wind Visibility Clouds
340° at 21 knots
 Gusting to 29 knots
Greater than 6 miles
  • Clear skies
From Jan-19 @ 10:00 to Jan-20 @ 00:00
FM191000 31010KT P6SM SKC
Wind Visibility Clouds
310° at 10 knots Greater than 6 miles
  • Clear skies
KFST 190059Z 1901/1924 34021G29KT P6SM SKC FM191000 31010KT P6SM SKC
Issued Jan-19 @ 00:59 UTC
(an hour ago)
Valid From Jan-19 @ 01:00 UTC
(an hour ago)
Valid To Jan-20 @ 00:00 UTC
(in 22 hours)
Jan-19 @ 01:00 - Jan-19 @ 10:00
Wind Visibility
340° at 21 knots
 Gusting to 29 knots
Greater than 6 miles
Clouds
  • Clear skies
From Jan-19 @ 10:00 - Jan-20 @ 00:00
Wind Visibility
310° at 10 knots Greater than 6 miles
Clouds
  • Clear skies